createdAt,value
2023-04-08T00:00:17.606Z,97539.59
2023-04-08T00:02:44.223Z,97540.53
2023-04-08T00:05:10.835Z,97539.66
2023-04-08T00:07:37.493Z,97537.03
2023-04-08T00:10:04.403Z,97543.06
2023-04-08T00:12:31.015Z,97543.06
2023-04-08T00:14:58.029Z,97536.97
2023-04-08T00:17:24.572Z,97540.47
2023-04-08T00:19:51.779Z,97536.03
2023-04-08T00:22:18.342Z,97544.75
2023-04-08T00:24:44.907Z,97549.03
2023-04-08T00:27:11.402Z,97522.19
2023-04-08T00:29:37.978Z,97535.44
2023-04-08T00:32:04.879Z,97546.41
2023-04-08T00:34:31.427Z,97541.25
2023-04-08T00:36:57.995Z,97556.63
2023-04-08T00:39:25.450Z,97548.97
2023-04-08T00:41:52.022Z,97543.81
2023-04-08T00:44:18.565Z,97547.25
2023-04-08T00:46:45.326Z,97542.97
2023-04-08T00:49:12.415Z,97551.50
2023-04-08T00:51:38.977Z,97549.84
2023-04-08T00:54:06.248Z,97545.56
2023-04-08T00:56:33.020Z,97548.97
2023-04-08T00:59:00.430Z,97542.13
2023-04-08T01:01:59.707Z,97552.34
2023-04-08T01:04:48.111Z,97551.47
2023-04-08T01:07:27.827Z,97547.25
2023-04-08T01:09:59.173Z,97548.91
2023-04-08T01:12:27.711Z,97551.47
2023-04-08T01:15:01.664Z,97531.38
2023-04-08T01:17:28.859Z,97559.09
2023-04-08T01:19:55.710Z,97552.28
2023-04-08T01:22:43.484Z,97554.81
2023-04-08T01:25:17.143Z,97558.31
2023-04-08T01:27:43.964Z,97562.47
2023-04-08T01:30:10.536Z,97561.72
2023-04-08T01:32:37.136Z,97546.13
2023-04-08T01:35:03.827Z,97549.72
2023-04-08T01:37:30.622Z,97552.34
2023-04-08T01:39:57.181Z,97546.25
2023-04-08T01:42:24.283Z,97545.41
2023-04-08T01:44:51.856Z,97534.03
2023-04-08T01:47:18.381Z,97548.97
2023-04-08T01:49:44.977Z,97553.94
2023-04-08T01:52:11.536Z,97556.63
2023-04-08T01:54:38.074Z,97538.53
2023-04-08T01:57:06.505Z,97543.47
2023-04-08T01:59:34.842Z,97548.97
2023-04-08T02:02:01.757Z,97538.47
2023-04-08T02:04:28.535Z,97548.06
2023-04-08T02:06:56.346Z,97543.69
2023-04-08T02:09:22.894Z,97551.56
2023-04-08T02:11:49.446Z,97552.34
2023-04-08T02:14:16.125Z,97541.19
2023-04-08T02:16:52.444Z,97541.16
2023-04-08T02:19:24.690Z,97556.66
2023-04-08T02:21:54.612Z,97553.28
2023-04-08T02:24:21.193Z,97546.31
2023-04-08T02:26:47.731Z,97552.34
2023-04-08T02:29:15.807Z,97556.63
2023-04-08T02:31:42.955Z,97546.19
2023-04-08T02:34:12.606Z,97547.94
2023-04-08T02:36:41.009Z,97547.13
2023-04-08T02:39:07.816Z,97568.63
2023-04-08T02:41:34.364Z,97559.97
2023-04-08T02:44:00.921Z,97563.53
2023-04-08T02:46:27.406Z,97561.75
2023-04-08T02:48:53.961Z,97569.47
2023-04-08T02:51:20.487Z,97563.53
2023-04-08T02:53:47.168Z,97573.72
2023-04-08T02:56:13.778Z,97568.63
2023-04-08T02:58:40.333Z,97569.47
2023-04-08T03:01:08.928Z,97568.63
2023-04-08T03:03:35.866Z,97559.81
2023-04-08T03:06:02.402Z,97568.50
2023-04-08T03:08:28.946Z,97574.56
2023-04-08T03:10:55.506Z,97577.13
2023-04-08T03:13:22.017Z,97557.25
2023-04-08T03:15:48.518Z,97569.41
2023-04-08T03:18:15.505Z,97553.72
2023-04-08T03:20:42.048Z,97540.75
2023-04-08T03:23:08.613Z,97574.56
2023-04-08T03:25:35.098Z,97557.03
2023-04-08T03:28:01.662Z,97579.66
2023-04-08T03:30:28.493Z,97524.06
2023-04-08T03:32:55.119Z,97578.00
2023-04-08T03:35:21.763Z,97558.94
2023-04-08T03:37:48.578Z,97575.44
2023-04-08T03:40:15.162Z,97573.72
2023-04-08T03:42:41.721Z,97576.94
2023-04-08T03:45:08.741Z,97584.75
2023-04-08T03:47:35.714Z,97585.53
2023-04-08T03:50:02.232Z,97582.97
2023-04-08T03:52:28.821Z,97584.72
2023-04-08T03:54:55.485Z,97575.16
2023-04-08T03:57:21.961Z,97587.25
2023-04-08T03:59:48.607Z,97581.19
2023-04-08T04:02:15.424Z,97597.50
2023-04-08T04:04:42.217Z,97594.13
2023-04-08T04:07:08.815Z,97601.75
2023-04-08T04:09:35.491Z,97583.63
2023-04-08T04:12:02.386Z,97599.22
2023-04-08T04:14:28.889Z,97593.13
2023-04-08T04:16:55.397Z,97599.16
2023-04-08T04:19:21.950Z,97606.84
2023-04-08T04:21:48.521Z,97610.91
2023-04-08T04:24:15.103Z,97587.59
2023-04-08T04:26:42.101Z,97611.00
2023-04-08T04:29:08.642Z,97612.81
2023-04-08T04:31:35.240Z,97593.75
2023-04-08T04:34:01.837Z,97611.06
2023-04-08T04:36:28.370Z,97613.63
2023-04-08T04:38:55.168Z,97608.53
2023-04-08T04:41:21.926Z,97620.44
2023-04-08T04:43:48.500Z,97618.72
2023-04-08T04:46:15.497Z,97618.72
2023-04-08T04:48:42.414Z,97618.72
2023-04-08T04:51:08.904Z,97622.16
2023-04-08T04:53:35.450Z,97623.00
2023-04-08T04:56:02.209Z,97625.56
2023-04-08T04:58:29.268Z,97621.16
2023-04-08T05:00:56.448Z,97626.44
2023-04-08T05:03:23.110Z,97627.31
2023-04-08T05:05:53.513Z,97627.25
2023-04-08T05:08:20.298Z,97629.81
2023-04-08T05:10:47.032Z,97632.41
2023-04-08T05:13:13.597Z,97615.75
2023-04-08T05:15:40.452Z,97643.44
2023-04-08T05:18:07.138Z,97640.06
2023-04-08T05:20:33.758Z,97622.66
2023-04-08T05:23:00.312Z,97642.53
2023-04-08T05:25:26.853Z,97645.09
2023-04-08T05:27:53.540Z,97637.38
2023-04-08T05:30:20.975Z,97624.09
2023-04-08T05:32:47.553Z,97656.84
2023-04-08T05:35:14.154Z,97648.25
2023-04-08T05:37:40.880Z,97634.19
2023-04-08T05:40:07.870Z,97654.94
2023-04-08T05:42:34.504Z,97664.25
2023-04-08T05:45:01.073Z,97644.19
2023-04-08T05:47:27.642Z,97643.25
2023-04-08T05:49:54.264Z,97662.34
2023-04-08T05:52:21.307Z,97658.91
2023-04-08T05:54:47.848Z,97658.84
2023-04-08T05:57:14.406Z,97657.13
2023-04-08T05:59:41.061Z,97652.63
2023-04-08T06:02:07.681Z,97654.19
2023-04-08T06:04:34.478Z,97662.03
2023-04-08T06:07:03.012Z,97666.31
2023-04-08T06:09:29.582Z,97674.06
2023-04-08T06:11:57.468Z,97672.41
2023-04-08T06:14:24.075Z,97680.91
2023-04-08T06:16:50.702Z,97667.31
2023-04-08T06:19:17.605Z,97671.53
2023-04-08T06:21:44.169Z,97668.03
2023-04-08T06:24:10.823Z,97681.84
2023-04-08T06:26:37.408Z,97672.59
2023-04-08T06:29:05.076Z,97676.88
2023-04-08T06:31:31.720Z,97674.19
2023-04-08T06:33:58.257Z,97677.69
2023-04-08T06:36:24.811Z,97659.19
2023-04-08T06:38:51.683Z,97689.53
2023-04-08T06:41:18.383Z,97688.66
2023-04-08T06:43:44.984Z,97695.41
2023-04-08T06:46:11.906Z,97702.22
2023-04-08T06:48:39.047Z,97700.56
2023-04-08T06:51:05.843Z,97696.94
2023-04-08T06:53:33.431Z,97710.81
2023-04-08T06:56:00.364Z,97710.75
2023-04-08T06:58:27.412Z,97710.81
2023-04-08T07:00:55.744Z,97718.47
2023-04-08T07:03:22.861Z,97722.69
2023-04-08T07:05:49.409Z,97710.63
2023-04-08T07:08:15.917Z,97721.81
2023-04-08T07:10:42.470Z,97725.22
2023-04-08T07:13:09.336Z,97727.59
2023-04-08T07:15:35.850Z,97729.31
2023-04-08T07:18:02.899Z,97735.41
2023-04-08T07:20:31.620Z,97740.59
2023-04-08T07:22:58.761Z,97735.41
2023-04-08T07:25:25.309Z,97743.81
2023-04-08T07:27:52.978Z,97744.81
2023-04-08T07:30:19.757Z,97751.59
2023-04-08T07:32:46.395Z,97757.59
2023-04-08T07:35:13.160Z,97765.25
2023-04-08T07:37:39.744Z,97764.47
2023-04-08T07:40:07.031Z,97758.38
2023-04-08T07:42:33.566Z,97771.22
2023-04-08T07:45:00.273Z,97694.72
2023-04-08T07:47:27.245Z,97767.81
2023-04-08T07:49:54.601Z,97774.72
2023-04-08T07:52:21.430Z,97777.28
2023-04-08T07:54:48.030Z,97774.59
2023-04-08T07:57:14.908Z,97763.06
2023-04-08T07:59:41.651Z,97786.53
2023-04-08T08:02:08.298Z,97785.78
2023-04-08T08:04:35.062Z,97783.03
2023-04-08T08:07:01.791Z,97782.13
2023-04-08T08:09:29.651Z,97784.91
2023-04-08T08:11:57.105Z,97771.78
2023-04-08T08:14:23.645Z,97795.97
2023-04-08T08:16:50.242Z,97793.41
2023-04-08T08:19:16.802Z,97798.50
2023-04-08T08:21:43.312Z,97789.69
2023-04-08T08:24:10.039Z,97793.16
2023-04-08T08:26:39.566Z,97801.94
2023-04-08T08:29:08.497Z,97740.06
2023-04-08T08:31:35.517Z,97802.75
2023-04-08T08:34:02.606Z,97798.44
2023-04-08T08:36:29.233Z,97803.59
2023-04-08T08:38:56.065Z,97805.25
2023-04-08T08:41:22.670Z,97812.13
2023-04-08T08:43:49.411Z,97807.91
2023-04-08T08:46:17.523Z,97807.91
2023-04-08T08:48:44.284Z,97798.50
2023-04-08T08:51:11.116Z,97803.59
2023-04-08T08:53:37.817Z,97816.34
2023-04-08T08:58:39.207Z,97809.53
2023-04-08T09:01:33.607Z,97813.81
2023-04-08T09:04:07.559Z,97815.44
2023-04-08T09:06:34.189Z,97818.72
2023-04-08T09:09:01.526Z,97814.50
2023-04-08T09:11:28.091Z,97827.44
2023-04-08T09:13:54.680Z,97829.09
2023-04-08T09:16:23.283Z,97828.25
2023-04-08T09:18:49.990Z,97808.25
2023-04-08T09:21:17.562Z,97806.47
2023-04-08T09:23:44.823Z,97828.25
2023-04-08T09:26:12.982Z,97827.31
2023-04-08T09:28:39.986Z,97818.50
2023-04-08T09:31:24.814Z,97824.81
2023-04-08T09:33:53.129Z,97813.28
2023-04-08T09:36:19.818Z,97809.06
2023-04-08T09:38:46.858Z,97828.97
2023-04-08T09:41:15.523Z,97838.44
2023-04-08T09:43:44.169Z,97838.44
2023-04-08T09:46:11.942Z,97831.59
2023-04-08T09:48:50.263Z,97835.00
2023-04-08T09:51:17.143Z,97835.91
2023-04-08T09:53:57.513Z,97814.22
2023-04-08T09:56:24.101Z,97828.31
2023-04-08T09:58:57.562Z,97816.09
2023-04-08T10:01:30.984Z,97835.97
2023-04-08T10:03:57.822Z,97827.44
2023-04-08T10:06:28.448Z,97848.84
2023-04-08T10:08:56.228Z,97847.13
2023-04-08T10:11:22.894Z,97853.13
2023-04-08T10:13:49.636Z,97839.28
2023-04-08T10:16:29.908Z,97848.06
2023-04-08T10:18:56.941Z,97829.16
2023-04-08T10:21:33.968Z,97848.97
2023-04-08T10:24:01.522Z,97838.63
2023-04-08T10:26:33.636Z,97835.22
2023-04-08T10:29:18.455Z,97842.91
2023-04-08T10:31:49.910Z,97847.19
2023-04-08T10:34:19.295Z,97842.09
2023-04-08T10:36:46.192Z,97841.97
2023-04-08T10:39:13.477Z,97847.19
2023-04-08T10:41:43.903Z,97841.97
2023-04-08T10:44:17.823Z,97840.19
2023-04-08T10:46:46.091Z,97847.13
2023-04-08T10:49:13.437Z,97845.47
2023-04-08T10:51:40.174Z,97844.59
2023-04-08T10:54:13.880Z,97844.38
2023-04-08T10:56:50.638Z,97841.19
2023-04-08T10:59:27.665Z,97849.56
2023-04-08T11:01:55.440Z,97842.78
2023-04-08T11:04:23.663Z,97835.00
2023-04-08T11:06:50.427Z,97847.94
2023-04-08T11:09:17.139Z,97852.22
2023-04-08T11:11:44.417Z,97860.69
2023-04-08T11:14:11.037Z,97860.56
2023-04-08T11:16:38.850Z,97852.03
2023-04-08T11:19:05.855Z,97850.25
2023-04-08T11:21:33.299Z,97847.63
2023-04-08T11:23:59.838Z,97852.78
2023-04-08T11:26:26.553Z,97847.56
2023-04-08T11:28:53.737Z,97860.44
2023-04-08T11:31:23.521Z,97849.09
2023-04-08T11:33:53.643Z,97860.44
2023-04-08T11:36:21.976Z,97850.03
2023-04-08T11:38:48.593Z,97865.53
2023-04-08T11:41:15.744Z,97851.91
2023-04-08T11:43:53.098Z,97849.09
2023-04-08T11:46:20.567Z,97851.06
2023-04-08T11:49:00.769Z,97856.94
2023-04-08T11:51:28.022Z,97857.88
2023-04-08T11:53:56.378Z,97857.94
2023-04-08T11:56:23.850Z,97848.44
2023-04-08T11:58:50.801Z,97862.16
2023-04-08T12:01:17.733Z,97858.84
2023-04-08T12:04:00.797Z,97861.38
2023-04-08T12:06:28.430Z,97863.13
2023-04-08T12:08:56.546Z,97855.41
2023-04-08T12:11:23.159Z,97857.06
2023-04-08T12:13:50.973Z,97855.47
2023-04-08T12:16:18.048Z,97859.69
2023-04-08T12:18:44.861Z,97858.00
2023-04-08T12:21:11.429Z,97860.56
2023-04-08T12:23:38.023Z,97856.28
2023-04-08T12:26:04.613Z,97855.47
2023-04-08T12:28:31.288Z,97859.75
2023-04-08T12:30:57.856Z,97846.81
2023-04-08T12:33:24.424Z,97855.47
2023-04-08T12:35:51.396Z,97857.19
2023-04-08T12:38:17.958Z,97856.34
2023-04-08T12:40:44.477Z,97861.44
2023-04-08T12:43:11.201Z,97862.31
2023-04-08T12:45:38.033Z,97866.53
2023-04-08T12:48:04.636Z,97858.84
2023-04-08T12:50:31.256Z,97862.31
2023-04-08T12:52:57.820Z,97867.41
2023-04-08T12:55:25.071Z,97863.13
2023-04-08T12:57:52.381Z,97858.78
2023-04-08T13:00:19.512Z,97864.78
2023-04-08T13:02:46.624Z,97869.94
2023-04-08T13:05:13.281Z,97866.34
2023-04-08T13:07:39.815Z,97870.91
2023-04-08T13:10:07.452Z,97847.44
2023-04-08T13:12:34.123Z,97868.34
2023-04-08T13:15:01.384Z,97867.41
2023-04-08T13:17:28.168Z,97870.00
2023-04-08T13:19:54.872Z,97869.03
2023-04-08T13:22:21.369Z,97870.00
2023-04-08T13:24:47.932Z,97864.78
2023-04-08T13:27:14.456Z,97807.19
2023-04-08T13:29:41.226Z,97865.72
2023-04-08T13:32:08.024Z,97866.63
2023-04-08T13:34:34.641Z,97863.13
2023-04-08T13:37:01.145Z,97868.22
2023-04-08T13:39:27.831Z,97871.66
2023-04-08T13:41:54.651Z,97873.44
2023-04-08T13:44:21.216Z,97865.53
2023-04-08T13:46:47.789Z,97873.44
2023-04-08T13:49:14.497Z,97850.78
2023-04-08T13:51:41.253Z,97874.31
2023-04-08T13:54:07.762Z,97814.94
2023-04-08T13:56:34.296Z,97868.28
2023-04-08T13:59:01.026Z,97873.44
2023-04-08T14:01:27.816Z,97866.69
2023-04-08T14:03:54.501Z,97861.38
2023-04-08T14:06:21.167Z,97872.56
2023-04-08T14:08:47.730Z,97872.63
2023-04-08T14:11:14.291Z,97875.03
2023-04-08T14:13:40.905Z,97869.94
2023-04-08T14:16:07.493Z,97875.19
2023-04-08T14:18:34.134Z,97873.44
2023-04-08T14:21:01.186Z,97873.38
2023-04-08T14:23:27.741Z,97877.72
2023-04-08T14:25:54.287Z,97873.44
2023-04-08T14:28:20.842Z,97876.88
2023-04-08T14:30:47.896Z,97886.13
2023-04-08T14:33:14.517Z,97869.94
2023-04-08T14:35:41.319Z,97879.44
2023-04-08T14:38:07.948Z,97872.44
2023-04-08T14:40:35.927Z,97880.22
2023-04-08T14:43:03.742Z,97885.38
2023-04-08T14:45:31.087Z,97885.38
2023-04-08T14:47:57.822Z,97883.63
2023-04-08T14:50:24.409Z,97891.34
2023-04-08T14:52:50.985Z,97887.06
2023-04-08T14:55:17.546Z,97881.03
2023-04-08T14:57:44.442Z,97888.81
2023-04-08T15:00:11.683Z,97891.34
2023-04-08T15:02:38.302Z,97887.91
2023-04-08T15:05:05.387Z,97888.75
2023-04-08T15:07:32.052Z,97886.19
2023-04-08T15:09:58.575Z,97892.22
2023-04-08T15:12:25.274Z,97875.78
2023-04-08T15:14:51.831Z,97890.53
2023-04-08T15:17:18.355Z,97884.53
2023-04-08T15:19:44.980Z,97890.53
2023-04-08T15:22:12.191Z,97889.75
2023-04-08T15:24:38.783Z,97892.31
2023-04-08T15:27:05.632Z,97886.19
2023-04-08T15:29:32.146Z,97894.84
2023-04-08T15:31:58.681Z,97901.63
2023-04-08T15:34:25.218Z,97891.34
2023-04-08T15:36:51.803Z,97900.78
2023-04-08T15:39:18.300Z,97898.25
2023-04-08T15:41:44.801Z,97897.41
2023-04-08T15:44:11.623Z,97892.31
2023-04-08T15:46:38.219Z,97891.47
2023-04-08T15:49:04.780Z,97893.09
2023-04-08T15:51:32.343Z,97888.06
2023-04-08T15:53:59.098Z,97879.09
2023-04-08T15:56:27.010Z,97880.81
2023-04-08T15:58:53.730Z,97896.50
2023-04-08T16:01:20.554Z,97892.81
2023-04-08T16:03:47.171Z,97909.31
2023-04-08T16:06:13.888Z,97912.44
2023-04-08T16:08:40.580Z,97926.91
2023-04-08T16:11:08.117Z,97937.31
2023-04-08T16:13:34.717Z,97945.84
2023-04-08T16:16:02.102Z,97918.72
2023-04-08T16:18:28.958Z,97938.13
2023-04-08T16:20:55.805Z,97943.16
2023-04-08T16:23:22.607Z,97934.63
2023-04-08T16:25:49.181Z,97941.53
2023-04-08T16:28:16.295Z,97942.41
2023-04-08T16:30:44.035Z,97947.50
2023-04-08T16:33:11.293Z,97954.25
2023-04-08T16:35:37.974Z,97947.50
2023-04-08T16:38:04.645Z,97950.88
2023-04-08T16:40:33.228Z,97952.59
2023-04-08T16:43:00.845Z,97947.50
2023-04-08T16:45:30.786Z,97951.78
2023-04-08T16:47:57.482Z,97955.22
2023-04-08T16:50:24.187Z,97944.69
2023-04-08T16:52:50.848Z,97957.84
2023-04-08T16:55:17.530Z,97961.25
2023-04-08T16:57:44.136Z,97960.38
2023-04-08T17:00:11.298Z,97962.03
2023-04-08T17:02:38.020Z,97964.66
2023-04-08T17:05:05.016Z,97963.81
2023-04-08T17:07:31.880Z,97966.34
2023-04-08T17:09:58.561Z,97966.34
2023-04-08T17:12:25.437Z,97960.38
2023-04-08T17:14:52.041Z,97972.31
2023-04-08T17:17:18.558Z,97970.50
2023-04-08T17:19:45.134Z,97973.13
2023-04-08T17:22:11.668Z,97977.41
2023-04-08T17:24:38.179Z,97977.34
2023-04-08T17:27:05.554Z,97979.81
2023-04-08T17:29:32.144Z,97986.69
2023-04-08T17:31:58.765Z,97985.00
2023-04-08T17:34:26.343Z,97986.69
2023-04-08T17:36:52.877Z,97986.69
2023-04-08T17:39:19.416Z,97996.00
2023-04-08T17:41:46.221Z,97992.56
2023-04-08T17:44:12.755Z,98000.22
2023-04-08T17:46:39.297Z,98004.47
2023-04-08T17:49:05.893Z,97994.28
2023-04-08T17:51:32.938Z,98003.59
2023-04-08T17:53:59.489Z,98003.59
2023-04-08T17:56:27.740Z,98006.94
2023-04-08T17:58:54.329Z,98006.94
2023-04-08T18:01:22.567Z,98006.88
2023-04-08T18:03:52.321Z,97986.72
2023-04-08T18:06:19.215Z,98012.81
2023-04-08T18:08:45.859Z,98013.66
2023-04-08T18:11:12.441Z,98020.47
2023-04-08T18:13:39.017Z,98024.72
2023-04-08T18:16:05.914Z,98028.13
2023-04-08T18:18:32.472Z,98025.50
2023-04-08T18:20:58.974Z,98030.75
2023-04-08T18:23:25.796Z,98033.28
2023-04-08T18:25:52.358Z,98042.72
2023-04-08T18:28:22.838Z,98043.56
2023-04-08T18:30:52.931Z,98047.81
2023-04-08T18:33:19.529Z,98051.34
2023-04-08T18:35:46.915Z,98052.22
2023-04-08T18:38:13.492Z,98055.72
2023-04-08T18:40:40.778Z,98062.56
2023-04-08T18:43:07.419Z,98062.63
2023-04-08T18:45:34.092Z,98059.25
2023-04-08T18:48:00.733Z,98065.31
2023-04-08T18:50:27.362Z,98070.41
2023-04-08T18:52:53.925Z,98073.84
2023-04-08T18:55:21.270Z,98075.59
2023-04-08T18:57:47.787Z,98086.75
2023-04-08T19:00:14.386Z,98077.41
2023-04-08T19:02:41.631Z,98078.22
2023-04-08T19:05:08.781Z,98084.25
2023-04-08T19:07:35.457Z,98086.00
2023-04-08T19:10:02.063Z,98077.31
2023-04-08T19:12:28.649Z,98087.72
2023-04-08T19:14:55.217Z,98084.41
2023-04-08T19:17:21.746Z,98079.31
2023-04-08T19:19:48.262Z,98084.47
2023-04-08T19:22:14.783Z,98089.56
2023-04-08T19:24:42.035Z,98084.47
2023-04-08T19:27:08.620Z,98091.22
2023-04-08T19:29:35.170Z,98087.94
2023-04-08T19:32:03.099Z,98087.94
2023-04-08T19:34:30.061Z,98087.16
2023-04-08T19:36:56.576Z,98087.94
2023-04-08T19:39:25.249Z,98088.88
2023-04-08T19:41:53.387Z,98090.56
2023-04-08T19:44:19.889Z,98093.09
2023-04-08T19:46:46.518Z,98092.25
2023-04-08T19:49:13.084Z,98096.63
2023-04-08T19:51:39.642Z,98100.91
2023-04-08T19:54:06.138Z,98110.31
2023-04-08T19:56:34.013Z,98099.97
2023-04-08T19:59:01.909Z,98094.00
2023-04-08T20:01:28.947Z,98100.13
2023-04-08T20:03:55.653Z,98097.56
2023-04-08T20:06:23.095Z,98096.53
2023-04-08T20:08:51.070Z,98105.22
2023-04-08T20:11:17.797Z,98119.69
2023-04-08T20:13:44.342Z,98114.59
2023-04-08T20:16:11.069Z,98108.53
2023-04-08T20:18:37.815Z,98117.16
2023-04-08T20:21:05.484Z,98122.25
2023-04-08T20:23:32.286Z,98119.69
2023-04-08T20:25:59.511Z,98122.31
2023-04-08T20:28:26.034Z,98126.34
2023-04-08T20:30:54.040Z,98115.50
2023-04-08T20:33:20.650Z,98116.34
2023-04-08T20:35:49.377Z,98114.66
2023-04-08T20:38:15.970Z,98118.88
2023-04-08T20:40:44.188Z,98116.34
2023-04-08T20:43:10.999Z,98115.50
2023-04-08T20:45:38.069Z,98126.53
2023-04-08T20:48:05.562Z,98124.00
2023-04-08T20:50:32.962Z,98120.59
2023-04-08T20:52:59.630Z,98115.50
2023-04-08T20:55:26.192Z,98113.78
2023-04-08T20:57:52.758Z,98113.00
2023-04-08T21:00:19.437Z,98115.50
2023-04-08T21:02:46.328Z,98101.66
2023-04-08T21:05:13.122Z,98109.44
2023-04-08T21:07:44.262Z,98113.00
2023-04-08T21:10:12.455Z,98118.03
2023-04-08T21:12:38.995Z,98111.97
2023-04-08T21:15:06.008Z,98115.41
2023-04-08T21:17:32.569Z,98120.66
2023-04-08T21:19:59.098Z,98113.84
2023-04-08T21:22:25.752Z,98106.13
2023-04-08T21:24:52.237Z,98100.63
2023-04-08T21:27:19.037Z,98117.28
2023-04-08T21:29:45.652Z,98118.88
2023-04-08T21:32:12.390Z,98112.13
2023-04-08T21:34:39.020Z,98128.31
2023-04-08T21:37:06.153Z,98126.59
2023-04-08T21:39:32.736Z,98126.59
2023-04-08T21:41:59.298Z,98124.06
2023-04-08T21:44:26.743Z,98129.16
2023-04-08T21:46:54.723Z,98125.75
2023-04-08T21:49:21.468Z,98119.78
2023-04-08T21:51:48.004Z,98126.59
2023-04-08T21:54:14.785Z,98122.31
2023-04-08T21:56:42.623Z,98128.38
2023-04-08T21:59:09.164Z,98128.38
2023-04-08T22:01:35.765Z,98130.03
2023-04-08T22:04:02.554Z,98136.88
2023-04-08T22:06:32.733Z,98142.81
2023-04-08T22:08:59.510Z,98131.50
2023-04-08T22:11:26.021Z,98131.63
2023-04-08T22:13:52.551Z,98140.25
2023-04-08T22:16:19.125Z,98132.66
2023-04-08T22:18:45.697Z,98135.16
2023-04-08T22:21:12.225Z,98127.50
2023-04-08T22:23:39.050Z,98130.13
2023-04-08T22:26:05.622Z,98124.00
2023-04-08T22:28:34.188Z,98128.38
2023-04-08T22:31:01.140Z,98131.78
2023-04-08T22:33:28.010Z,98134.25
2023-04-08T22:35:56.959Z,98135.06
2023-04-08T22:38:23.510Z,98129.91
2023-04-08T22:40:50.201Z,98136.75
2023-04-08T22:43:16.744Z,98127.34
2023-04-08T22:45:43.329Z,98130.72
2023-04-08T22:48:09.838Z,98130.66
2023-04-08T22:50:36.618Z,98132.31
2023-04-08T22:53:03.757Z,98126.25
2023-04-08T22:55:30.682Z,98133.91
2023-04-08T22:57:57.149Z,98137.34
2023-04-08T23:00:23.732Z,98131.38
2023-04-08T23:02:50.733Z,98130.44
2023-04-08T23:05:17.337Z,98134.66
2023-04-08T23:07:43.884Z,98133.78
2023-04-08T23:10:10.569Z,98134.66
2023-04-08T23:12:37.124Z,98131.09
2023-04-08T23:15:04.465Z,98122.59
2023-04-08T23:17:30.987Z,98125.19
2023-04-08T23:19:57.578Z,98130.31
2023-04-08T23:22:24.204Z,98128.47
2023-04-08T23:24:50.777Z,98132.78
2023-04-08T23:27:17.330Z,98136.19
2023-04-08T23:29:43.879Z,98135.25
2023-04-08T23:32:10.651Z,98124.91
2023-04-08T23:34:37.503Z,98127.53
2023-04-08T23:37:04.428Z,98130.16
2023-04-08T23:39:31.759Z,98124.91
2023-04-08T23:41:58.342Z,98117.06
2023-04-08T23:44:24.858Z,98131.81
2023-04-08T23:46:51.515Z,98134.97
2023-04-08T23:49:18.094Z,98130.72
2023-04-08T23:51:44.632Z,98139.41
2023-04-08T23:54:11.281Z,98130.03
2023-04-08T23:56:39.977Z,98139.41
2023-04-08T23:59:06.502Z,98127.25
